Time;durP1;ratioP1;P1;durP2;ratioP2;P2;SDS_P1;SDS_P2;PMS_P1;PMS_P2;Temp;Humidity;BMP_temperature;BMP_pressure;BME280_temperature;BME280_humidity;BME280_pressure;Samples;Min_cycle;Max_cycle;Signal;HPM_P1;HPM_P2
2022/10/16 00:01:46;;;;;;;1.13;1.03;;;15.50;97.30;;;;;;5010189;28;20213;-87
2022/10/16 00:04:12;;;;;;;1.97;1.87;;;15.50;97.30;;;;;;5010140;28;20197;-86
2022/10/16 00:06:38;;;;;;;1.30;1.20;;;15.50;97.30;;;;;;5010596;28;20477;-86
2022/10/16 00:09:03;;;;;;;1.20;1.10;;;15.50;97.30;;;;;;5011022;28;20915;-87
2022/10/16 00:11:36;;;;;;;1.83;1.10;;;15.40;97.30;;;;;;5030748;28;20177;-88
2022/10/16 00:14:04;;;;;;;1.53;1.00;;;15.30;97.30;;;;;;5034399;28;20193;-91
2022/10/16 00:16:30;;;;;;;1.83;1.60;;;15.20;97.30;;;;;;5033810;28;20424;-89
2022/10/16 00:18:56;;;;;;;1.20;1.10;;;15.10;97.30;;;;;;5025629;28;20435;-86
2022/10/16 00:21:25;;;;;;;1.20;1.10;;;15.00;97.30;;;;;;5009804;28;20475;-86
2022/10/16 00:24:04;;;;;;;1.57;1.47;;;15.00;97.30;;;;;;5009631;28;20822;-86
2022/10/16 00:26:31;;;;;;;1.20;1.10;;;14.90;97.30;;;;;;5009641;28;20436;-87
2022/10/16 00:28:57;;;;;;;1.27;1.17;;;14.90;97.30;;;;;;5009726;28;20435;-87
2022/10/16 00:31:23;;;;;;;1.00;0.90;;;14.90;97.30;;;;;;5009736;28;20939;-87
2022/10/16 00:33:50;;;;;;;1.23;1.13;;;14.90;97.30;;;;;;5009760;28;20428;-86
2022/10/16 00:36:18;;;;;;;1.17;1.10;;;14.90;97.30;;;;;;5010883;28;20416;-89
2022/10/16 00:38:44;;;;;;;1.03;1.00;;;14.90;97.30;;;;;;5009247;28;20965;-86
2022/10/16 00:41:15;;;;;;;1.30;1.20;;;15.00;97.30;;;;;;5009288;28;20882;-86
2022/10/16 00:43:48;;;;;;;1.53;1.43;;;15.00;97.30;;;;;;5009730;28;20416;-86
2022/10/16 00:46:38;;;;;;;1.87;1.83;;;15.00;97.30;;;;;;5009528;28;20420;-86
2022/10/16 00:49:14;;;;;;;1.00;0.90;;;15.10;97.30;;;;;;5011178;28;20419;-86
2022/10/16 00:51:43;;;;;;;1.07;1.00;;;15.10;97.30;;;;;;5013769;28;20426;-86
2022/10/16 00:54:16;;;;;;;1.77;1.33;;;15.10;97.30;;;;;;5013349;28;20497;-86
2022/10/16 00:56:43;;;;;;;1.37;1.30;;;15.20;97.30;;;;;;5013518;28;20485;-86
2022/10/16 00:59:16;;;;;;;0.90;0.80;;;15.20;97.30;;;;;;5013263;28;20424;-87
2022/10/16 01:01:41;;;;;;;0.93;0.83;;;15.20;97.30;;;;;;5013462;28;20478;-88
2022/10/16 01:04:09;;;;;;;1.40;1.30;;;15.30;97.30;;;;;;5014324;28;20428;-86
2022/10/16 01:07:07;;;;;;;1.10;1.00;;;15.30;97.30;;;;;;5013515;28;20263;-87
2022/10/16 01:09:48;;;;;;;1.20;1.10;;;15.30;97.30;;;;;;5013364;28;20456;-86
2022/10/16 01:12:16;;;;;;;4.60;1.77;;;15.30;97.30;;;;;;5013147;28;20942;-87
2022/10/16 01:15:20;;;;;;;1.10;1.00;;;15.30;97.30;;;;;;5013056;28;20450;-87
2022/10/16 01:17:56;;;;;;;1.40;1.30;;;15.40;97.30;;;;;;5009110;28;20424;-86
2022/10/16 01:20:28;;;;;;;1.00;0.90;;;15.40;97.30;;;;;;4993305;28;20555;-87
2022/10/16 01:23:00;;;;;;;2.80;1.60;;;15.40;97.30;;;;;;4993279;28;20799;-86
2022/10/16 01:25:50;;;;;;;1.00;0.90;;;15.40;97.30;;;;;;4993171;28;20610;-87
2022/10/16 01:28:22;;;;;;;1.17;1.07;;;15.40;97.30;;;;;;4993146;28;20449;-87
2022/10/16 01:30:56;;;;;;;0.97;0.87;;;15.40;97.30;;;;;;4997289;28;20419;-92
2022/10/16 01:33:28;;;;;;;1.00;0.90;;;15.40;97.30;;;;;;5019034;28;20445;-93
2022/10/16 01:35:59;;;;;;;1.00;0.90;;;15.40;97.30;;;;;;5019239;28;20449;-92
2022/10/16 01:38:34;;;;;;;0.93;0.83;;;15.40;97.30;;;;;;5011510;28;20783;-86
2022/10/16 01:41:10;;;;;;;1.57;1.20;;;15.40;97.30;;;;;;4993261;28;20512;-87
2022/10/16 01:44:04;;;;;;;1.10;1.00;;;15.40;97.30;;;;;;4992966;28;20428;-86
2022/10/16 01:46:31;;;;;;;1.10;1.00;;;15.40;97.30;;;;;;4990548;28;20425;-87
2022/10/16 01:48:58;;;;;;;1.20;1.10;;;15.40;97.30;;;;;;4992766;28;20420;-87
2022/10/16 01:51:26;;;;;;;1.00;0.90;;;15.40;97.30;;;;;;4993956;28;20786;-88
2022/10/16 01:53:55;;;;;;;1.50;1.40;;;15.40;97.30;;;;;;4992503;28;20421;-88
2022/10/16 01:56:23;;;;;;;1.27;1.17;;;15.40;97.30;;;;;;4992422;28;20457;-87
2022/10/16 01:59:01;;;;;;;1.03;1.00;;;15.40;97.30;;;;;;4993864;28;20421;-87
2022/10/16 02:01:31;;;;;;;1.07;0.97;;;15.40;97.30;;;;;;4991519;28;20465;-86
2022/10/16 02:04:01;;;;;;;1.20;1.10;;;15.40;97.30;;;;;;4993639;28;20405;-87
2022/10/16 02:06:27;;;;;;;0.90;0.80;;;15.40;97.30;;;;;;4992301;28;20417;-86
2022/10/16 02:08:53;;;;;;;1.00;0.90;;;15.40;97.30;;;;;;4992170;28;20508;-87
2022/10/16 02:11:19;;;;;;;0.70;0.70;;;15.40;97.30;;;;;;4993560;28;20189;-87
2022/10/16 02:13:55;;;;;;;1.07;1.00;;;15.40;97.30;;;;;;4992425;28;20429;-86
2022/10/16 02:16:20;;;;;;;1.17;1.07;;;15.40;97.30;;;;;;4999204;28;20185;-87
2022/10/16 02:18:46;;;;;;;1.20;1.10;;;15.30;97.30;;;;;;5008463;28;20835;-89
2022/10/16 02:21:32;;;;;;;1.47;1.00;;;15.20;97.30;;;;;;5008648;28;20213;-87
2022/10/16 02:24:26;;;;;;;1.00;0.90;;;15.20;97.30;;;;;;5008705;28;20188;-86
2022/10/16 02:27:07;;;;;;;4.50;1.33;;;15.10;97.30;;;;;;5008514;28;20424;-86
2022/10/16 02:29:40;;;;;;;1.07;0.97;;;15.10;97.30;;;;;;5008341;28;20463;-86
2022/10/16 02:32:10;;;;;;;6.73;1.20;;;15.10;97.30;;;;;;4993186;28;20779;-87
2022/10/16 02:34:36;;;;;;;1.10;1.00;;;15.10;97.30;;;;;;5008048;28;20986;-87
2022/10/16 02:37:05;;;;;;;0.90;0.80;;;15.10;97.30;;;;;;5007995;28;20425;-87
2022/10/16 02:39:31;;;;;;;0.90;0.80;;;15.10;97.30;;;;;;5008131;28;20780;-86
2022/10/16 02:41:59;;;;;;;1.57;0.80;;;15.10;97.30;;;;;;5008218;28;20464;-87
2022/10/16 02:44:30;;;;;;;1.00;0.90;;;15.10;97.30;;;;;;5007803;28;20437;-87
2022/10/16 02:46:59;;;;;;;0.90;0.80;;;15.00;97.30;;;;;;4991782;28;20421;-86
2022/10/16 02:49:30;;;;;;;1.47;0.90;;;15.00;97.30;;;;;;5008144;28;20413;-86
2022/10/16 02:52:01;;;;;;;0.70;0.70;;;15.00;97.30;;;;;;5008109;28;20417;-86
2022/10/16 02:54:29;;;;;;;1.10;1.00;;;15.00;97.30;;;;;;5007917;28;20495;-88
2022/10/16 02:57:01;;;;;;;1.10;1.00;;;15.10;97.30;;;;;;5007975;28;20566;-87
2022/10/16 02:59:29;;;;;;;2.00;1.33;;;15.10;97.30;;;;;;5007978;28;20456;-86
2022/10/16 03:02:00;;;;;;;1.53;1.30;;;15.10;97.30;;;;;;5007727;28;20465;-87
2022/10/16 03:04:28;;;;;;;1.23;1.13;;;15.10;97.30;;;;;;5007777;28;20444;-88
2022/10/16 03:07:20;;;;;;;1.00;1.00;;;15.10;97.30;;;;;;5007897;28;20428;-86
2022/10/16 03:09:49;;;;;;;1.20;1.10;;;15.00;97.30;;;;;;4983945;28;20460;-86
2022/10/16 03:12:20;;;;;;;1.20;1.10;;;15.00;97.30;;;;;;5007787;28;20416;-86
2022/10/16 03:14:51;;;;;;;1.20;1.10;;;15.00;97.30;;;;;;4991149;28;20452;-86
2022/10/16 03:17:19;;;;;;;0.97;0.87;;;15.00;97.30;;;;;;5010665;28;20424;-87
2022/10/16 03:19:51;;;;;;;1.10;1.00;;;14.90;97.30;;;;;;5010571;28;20678;-86
2022/10/16 03:22:20;;;;;;;1.07;0.97;;;14.80;97.30;;;;;;5010773;28;20507;-86
2022/10/16 03:25:09;;;;;;;1.90;1.53;;;14.80;97.30;;;;;;5010372;28;20963;-86
2022/10/16 03:27:39;;;;;;;1.10;1.00;;;14.80;97.30;;;;;;5010554;28;20420;-86
2022/10/16 03:30:08;;;;;;;0.77;0.73;;;14.80;97.30;;;;;;5010587;28;20420;-86
2022/10/16 03:32:41;;;;;;;1.00;0.90;;;14.80;97.30;;;;;;5010483;28;20464;-86
2022/10/16 03:35:07;;;;;;;1.10;1.00;;;14.80;97.30;;;;;;5010245;28;20447;-86
2022/10/16 03:37:36;;;;;;;0.90;0.80;;;14.80;97.30;;;;;;5010604;28;20424;-86
2022/10/16 03:40:02;;;;;;;1.27;1.17;;;14.80;97.30;;;;;;5010159;28;20209;-86
2022/10/16 03:42:27;;;;;;;2.10;1.00;;;14.80;97.30;;;;;;5010138;28;20946;-86
2022/10/16 03:44:53;;;;;;;0.90;0.80;;;14.80;97.30;;;;;;5011219;28;20443;-86
2022/10/16 03:47:21;;;;;;;0.93;0.83;;;14.80;97.30;;;;;;5010390;28;20188;-86
2022/10/16 03:49:47;;;;;;;0.90;0.80;;;14.80;97.30;;;;;;5010179;28;20177;-86
2022/10/16 03:52:13;;;;;;;1.00;0.90;;;14.80;97.30;;;;;;5010206;28;20443;-87
2022/10/16 03:54:38;;;;;;;0.97;0.87;;;14.80;97.30;;;;;;5010099;28;20967;-87
2022/10/16 03:57:04;;;;;;;1.40;1.30;;;14.80;97.30;;;;;;5010408;28;20183;-87
2022/10/16 03:59:30;;;;;;;1.47;1.37;;;14.80;97.30;;;;;;5011114;28;20260;-86
2022/10/16 04:01:55;;;;;;;7.40;1.00;;;14.80;97.30;;;;;;5010353;28;20205;-86
2022/10/16 04:04:21;;;;;;;1.67;1.57;;;14.80;97.30;;;;;;5010502;28;20197;-86
2022/10/16 04:06:46;;;;;;;1.10;1.00;;;14.70;97.30;;;;;;5010535;28;20188;-86
2022/10/16 04:09:12;;;;;;;2.50;1.10;;;14.70;97.30;;;;;;5009730;28;20185;-86
2022/10/16 04:11:37;;;;;;;1.00;0.90;;;14.70;97.30;;;;;;5009810;28;20563;-86
2022/10/16 04:14:03;;;;;;;0.83;0.77;;;14.70;97.30;;;;;;5009802;28;20177;-86
2022/10/16 04:16:28;;;;;;;1.00;0.90;;;14.70;97.30;;;;;;4998313;28;20571;-86
2022/10/16 04:18:54;;;;;;;1.37;1.30;;;14.70;97.30;;;;;;4990230;28;20644;-86
2022/10/16 04:21:19;;;;;;;0.90;0.80;;;14.80;97.30;;;;;;4991576;28;20846;-86
2022/10/16 04:23:45;;;;;;;1.50;1.40;;;14.80;97.30;;;;;;4991091;28;20177;-86
2022/10/16 04:26:10;;;;;;;1.40;1.30;;;14.80;97.30;;;;;;4989721;28;20218;-87
2022/10/16 04:28:36;;;;;;;1.20;1.10;;;14.80;97.30;;;;;;4990136;28;20189;-86
2022/10/16 04:31:04;;;;;;;1.10;1.00;;;14.70;97.30;;;;;;4989983;28;20611;-86
2022/10/16 04:33:30;;;;;;;1.03;0.93;;;14.70;97.30;;;;;;4991403;28;20620;-86
2022/10/16 04:36:02;;;;;;;1.00;0.90;;;14.70;97.30;;;;;;4989923;28;20560;-88
2022/10/16 04:38:28;;;;;;;1.30;1.20;;;14.70;97.30;;;;;;4991383;28;20205;-86
2022/10/16 04:40:54;;;;;;;1.10;1.00;;;14.60;97.30;;;;;;4989906;28;20465;-86
2022/10/16 04:43:20;;;;;;;0.90;0.80;;;14.60;97.30;;;;;;4990183;28;20418;-88
2022/10/16 04:45:46;;;;;;;1.20;1.10;;;14.60;97.30;;;;;;4989883;28;20562;-86
2022/10/16 04:48:11;;;;;;;1.67;1.13;;;14.50;97.30;;;;;;4990010;28;20649;-86
2022/10/16 04:50:37;;;;;;;1.73;1.63;;;14.50;97.30;;;;;;4991114;28;20193;-86
2022/10/16 04:53:02;;;;;;;1.20;1.10;;;14.50;97.30;;;;;;4989995;28;20189;-88
2022/10/16 04:55:28;;;;;;;1.33;1.10;;;14.50;97.30;;;;;;4989751;28;20205;-86
2022/10/16 04:57:54;;;;;;;1.30;1.20;;;14.50;97.30;;;;;;4991248;28;20469;-86
2022/10/16 05:00:19;;;;;;;1.03;0.93;;;14.50;97.30;;;;;;4989446;28;20205;-86
2022/10/16 05:02:45;;;;;;;1.10;1.00;;;14.50;97.30;;;;;;4990000;28;20174;-86
2022/10/16 05:05:11;;;;;;;1.20;1.10;;;14.50;97.30;;;;;;4989750;28;20289;-86
2022/10/16 05:07:37;;;;;;;1.10;1.00;;;14.50;97.30;;;;;;4991234;28;20228;-86
2022/10/16 05:10:03;;;;;;;1.10;1.00;;;14.60;97.30;;;;;;4991242;28;20421;-86
2022/10/16 05:12:28;;;;;;;1.30;1.20;;;14.60;97.30;;;;;;4990535;28;20273;-86
2022/10/16 05:14:58;;;;;;;1.20;1.10;;;14.60;97.30;;;;;;4994399;28;20209;-91
2022/10/16 05:17:24;;;;;;;1.60;1.50;;;14.60;97.30;;;;;;5014445;28;20192;-88
2022/10/16 05:19:50;;;;;;;1.10;1.00;;;14.60;97.30;;;;;;5014550;28;20445;-89
2022/10/16 05:22:15;;;;;;;1.20;1.10;;;14.60;97.30;;;;;;5014460;28;20420;-89
2022/10/16 05:27:18;;;;;;;1.20;1.10;;;14.60;97.30;;;;;;5027491;28;20421;-85
2022/10/16 05:29:48;;;;;;;1.60;1.50;;;14.60;97.30;;;;;;5011986;28;20914;-85
2022/10/16 05:32:15;;;;;;;1.93;1.33;;;14.60;97.30;;;;;;5012119;28;20411;-85
2022/10/16 05:34:41;;;;;;;1.10;1.00;;;14.70;97.30;;;;;;5012291;28;20872;-85
2022/10/16 05:37:07;;;;;;;1.10;1.00;;;14.60;97.30;;;;;;5014917;28;20422;-85
2022/10/16 05:39:33;;;;;;;1.57;1.50;;;14.70;97.30;;;;;;5015693;28;20196;-85
2022/10/16 05:41:58;;;;;;;1.00;0.90;;;14.70;97.30;;;;;;5015379;28;20494;-85
2022/10/16 05:44:24;;;;;;;1.00;0.90;;;14.70;97.30;;;;;;5033379;28;20165;-85
2022/10/16 05:46:49;;;;;;;2.60;1.80;;;14.70;97.30;;;;;;5015429;28;20549;-85
2022/10/16 05:49:15;;;;;;;2.40;1.27;;;14.70;97.30;;;;;;5015625;28;20222;-85
2022/10/16 05:51:41;;;;;;;0.93;0.90;;;14.70;97.30;;;;;;5033076;28;20180;-83
2022/10/16 05:54:07;;;;;;;1.00;0.90;;;14.70;97.30;;;;;;5015123;28;20414;-85
2022/10/16 05:56:33;;;;;;;2.30;1.40;;;14.60;97.30;;;;;;5014918;28;20707;-85
2022/10/16 05:58:58;;;;;;;1.40;1.30;;;14.60;97.30;;;;;;5015448;28;20754;-85
2022/10/16 06:01:24;;;;;;;2.80;1.10;;;14.70;97.30;;;;;;5015114;28;20213;-84
2022/10/16 06:03:51;;;;;;;1.10;1.00;;;14.70;97.30;;;;;;5032643;28;20547;-85
2022/10/16 06:06:20;;;;;;;1.43;1.40;;;14.70;97.30;;;;;;5014784;28;20526;-85
2022/10/16 06:08:47;;;;;;;3.20;1.57;;;14.80;97.30;;;;;;5015036;28;20415;-85
2022/10/16 06:11:15;;;;;;;1.20;1.10;;;14.80;97.30;;;;;;5014641;28;20798;-85
2022/10/16 06:13:42;;;;;;;1.10;1.00;;;14.80;97.30;;;;;;5014819;28;20431;-85
2022/10/16 06:16:08;;;;;;;1.10;1.07;;;14.90;97.30;;;;;;5019453;28;20431;-85
2022/10/16 06:18:34;;;;;;;1.00;0.90;;;15.00;97.30;;;;;;5014747;28;20431;-85
2022/10/16 06:21:06;;;;;;;1.40;1.30;;;15.00;97.30;;;;;;5014630;28;20477;-85
2022/10/16 06:23:31;;;;;;;1.07;0.97;;;15.00;97.30;;;;;;5014596;28;20179;-85
2022/10/16 06:26:08;;;;;;;1.20;1.10;;;15.10;97.30;;;;;;5014467;28;20479;-85
2022/10/16 06:28:34;;;;;;;1.20;1.10;;;15.10;97.30;;;;;;5014996;28;20601;-85
2022/10/16 06:31:00;;;;;;;1.23;1.13;;;15.10;97.30;;;;;;5014647;28;20419;-85
2022/10/16 06:33:26;;;;;;;1.10;1.00;;;15.20;97.30;;;;;;5014772;28;20813;-85
2022/10/16 06:35:51;;;;;;;1.17;1.10;;;15.20;97.30;;;;;;5014332;28;20439;-85
2022/10/16 06:38:17;;;;;;;2.00;1.17;;;15.20;97.30;;;;;;5032063;28;20640;-85
2022/10/16 06:40:42;;;;;;;1.47;1.23;;;15.20;97.30;;;;;;5014225;28;20410;-85
2022/10/16 06:43:08;;;;;;;3.80;1.13;;;15.30;97.30;;;;;;5014533;28;20188;-85
2022/10/16 06:45:33;;;;;;;1.77;1.20;;;15.30;97.30;;;;;;5014295;28;20339;-85
2022/10/16 06:47:59;;;;;;;1.07;0.90;;;15.30;97.30;;;;;;5013742;28;20179;-85
2022/10/16 06:50:25;;;;;;;0.97;0.87;;;15.40;97.30;;;;;;5014048;28;20193;-85
2022/10/16 06:52:50;;;;;;;1.03;0.93;;;15.50;97.30;;;;;;5031870;28;20191;-85
2022/10/16 06:55:16;;;;;;;1.07;0.97;;;15.50;97.30;;;;;;5014156;28;20236;-85
2022/10/16 06:57:43;;;;;;;1.97;1.87;;;15.50;97.30;;;;;;5014109;28;20278;-84
2022/10/16 07:00:08;;;;;;;1.13;1.03;;;15.50;97.30;;;;;;5031793;28;20466;-85
2022/10/16 07:02:34;;;;;;;1.40;1.30;;;15.60;97.30;;;;;;5013838;28;20518;-85
2022/10/16 07:04:59;;;;;;;2.27;1.83;;;15.60;97.30;;;;;;5031520;28;20200;-85
2022/10/16 07:07:26;;;;;;;1.03;1.00;;;15.60;97.30;;;;;;5013756;28;20628;-85
2022/10/16 07:09:52;;;;;;;1.00;0.90;;;15.70;97.30;;;;;;5013702;28;20180;-85
2022/10/16 07:12:18;;;;;;;0.90;0.80;;;15.70;97.30;;;;;;5031420;28;20407;-85
2022/10/16 07:14:43;;;;;;;1.10;0.90;;;15.70;97.30;;;;;;5013869;28;20181;-85
2022/10/16 07:17:09;;;;;;;0.93;0.83;;;15.70;97.30;;;;;;5014110;28;20169;-85
2022/10/16 07:19:34;;;;;;;1.50;1.20;;;15.80;97.30;;;;;;5014270;28;20183;-85
2022/10/16 07:22:00;;;;;;;2.40;2.07;;;15.80;97.30;;;;;;5013789;28;20258;-85
2022/10/16 07:24:26;;;;;;;1.17;1.10;;;15.90;97.30;;;;;;5013888;28;20177;-85
2022/10/16 07:26:52;;;;;;;1.00;0.90;;;15.90;97.30;;;;;;5010325;28;20468;-85
2022/10/16 07:29:20;;;;;;;2.30;1.83;;;15.90;97.30;;;;;;5011932;28;20169;-84
2022/10/16 07:31:47;;;;;;;1.03;0.97;;;16.00;97.30;;;;;;5011489;28;20217;-85
2022/10/16 07:34:14;;;;;;;2.77;1.40;;;16.00;97.30;;;;;;5010266;28;20428;-85
2022/10/16 07:36:39;;;;;;;1.20;1.10;;;16.00;97.30;;;;;;5009921;28;20530;-85
2022/10/16 07:39:05;;;;;;;1.10;1.00;;;16.00;97.30;;;;;;5009934;28;20550;-85
2022/10/16 07:41:32;;;;;;;1.07;0.97;;;16.10;97.30;;;;;;5009819;28;20240;-84
2022/10/16 07:44:02;;;;;;;1.50;1.40;;;16.10;97.30;;;;;;5009951;28;20188;-86
2022/10/16 07:46:28;;;;;;;2.10;1.30;;;16.10;97.30;;;;;;5009783;28;20435;-85
2022/10/16 07:48:53;;;;;;;1.80;1.03;;;16.10;97.30;;;;;;5011109;28;20408;-85
2022/10/16 07:51:21;;;;;;;1.23;1.10;;;16.20;97.30;;;;;;5009826;28;20462;-85
2022/10/16 07:53:47;;;;;;;1.30;1.20;;;16.30;97.30;;;;;;5009913;28;20181;-85
2022/10/16 07:56:14;;;;;;;0.70;0.70;;;16.30;97.30;;;;;;5009756;28;20494;-85
2022/10/16 07:58:39;;;;;;;0.97;0.87;;;16.40;97.30;;;;;;5009160;28;20178;-85
2022/10/16 08:01:07;;;;;;;1.10;1.00;;;16.50;97.30;;;;;;5009691;28;20542;-85
2022/10/16 08:03:33;;;;;;;1.10;1.10;;;16.70;97.30;;;;;;5009849;28;20173;-85
2022/10/16 08:05:59;;;;;;;0.93;0.90;;;16.80;97.30;;;;;;5009848;28;20488;-85
2022/10/16 08:08:25;;;;;;;0.90;0.80;;;16.80;97.30;;;;;;5010889;28;20235;-85
2022/10/16 08:10:51;;;;;;;1.53;1.47;;;17.00;97.30;;;;;;5009814;28;20833;-85
2022/10/16 08:13:16;;;;;;;1.10;1.00;;;17.00;97.30;;;;;;5009640;28;20466;-85
2022/10/16 08:15:43;;;;;;;2.00;1.07;;;17.20;97.30;;;;;;5010412;28;20193;-85
2022/10/16 08:18:10;;;;;;;2.07;1.00;;;17.30;97.30;;;;;;5009188;28;20540;-85
2022/10/16 08:20:35;;;;;;;4.10;1.20;;;17.60;97.30;;;;;;5010853;28;20464;-85
2022/10/16 08:23:01;;;;;;;1.17;1.07;;;17.80;97.30;;;;;;5009437;28;20416;-85
2022/10/16 08:25:27;;;;;;;1.37;1.30;;;18.10;97.30;;;;;;5009119;28;20219;-85
2022/10/16 08:27:53;;;;;;;1.00;0.90;;;18.40;97.30;;;;;;5009237;28;20420;-85
2022/10/16 08:30:20;;;;;;;0.77;0.73;;;18.50;97.30;;;;;;5009364;28;20424;-85
2022/10/16 08:32:46;;;;;;;0.90;0.80;;;18.50;97.30;;;;;;5010657;28;20189;-85
2022/10/16 08:35:13;;;;;;;0.90;0.80;;;18.50;97.30;;;;;;5009450;28;20973;-85
2022/10/16 08:37:38;;;;;;;1.20;1.10;;;18.40;97.30;;;;;;5009361;28;20187;-85
2022/10/16 08:40:07;;;;;;;1.10;1.00;;;18.40;97.30;;;;;;5009490;28;20416;-85
2022/10/16 08:42:55;;;;;;;0.80;0.70;;;18.40;97.30;;;;;;5009037;28;20169;-85
2022/10/16 08:45:28;;;;;;;1.00;0.90;;;18.40;97.30;;;;;;5002773;28;20523;-84
2022/10/16 08:48:17;;;;;;;1.00;0.90;;;18.40;97.30;;;;;;5009433;28;20954;-84
2022/10/16 08:50:44;;;;;;;1.13;1.10;;;18.50;97.30;;;;;;5009338;28;20420;-85
2022/10/16 08:53:17;;;;;;;1.07;1.00;;;18.60;97.30;;;;;;5009553;28;20470;-84
2022/10/16 08:55:53;;;;;;;1.00;0.90;;;18.70;97.30;;;;;;5010939;28;20788;-84
2022/10/16 08:58:26;;;;;;;0.90;0.80;;;18.70;97.30;;;;;;5009234;28;20818;-86
2022/10/16 09:00:58;;;;;;;1.53;1.43;;;18.60;97.30;;;;;;5009183;28;21028;-84
2022/10/16 09:03:33;;;;;;;1.13;1.03;;;18.60;97.30;;;;;;5010306;28;20404;-85
2022/10/16 09:06:33;;;;;;;1.03;0.93;;;18.70;97.30;;;;;;5008811;28;20542;-84
2022/10/16 09:09:08;;;;;;;1.00;0.90;;;18.80;97.30;;;;;;5009200;28;21020;-84
2022/10/16 09:11:34;;;;;;;0.80;0.70;;;18.80;97.30;;;;;;5012810;28;20431;-84
2022/10/16 09:14:13;;;;;;;0.93;0.83;;;18.90;97.30;;;;;;5013823;28;20438;-84
2022/10/16 09:16:48;;;;;;;1.20;1.10;;;19.00;97.30;;;;;;5012443;28;20946;-84
2022/10/16 09:19:37;;;;;;;1.43;1.37;;;19.20;97.30;;;;;;5012727;28;20478;-84
2022/10/16 09:22:12;;;;;;;0.90;0.80;;;19.50;97.30;;;;;;5012482;28;20836;-84
2022/10/16 09:24:38;;;;;;;0.97;0.90;;;19.50;97.30;;;;;;5012223;28;20415;-84
2022/10/16 09:27:03;;;;;;;1.20;1.10;;;19.60;97.30;;;;;;5012312;28;20459;-82
2022/10/16 09:29:29;;;;;;;1.00;0.90;;;19.70;97.30;;;;;;5012405;28;20196;-84
2022/10/16 09:31:58;;;;;;;1.10;1.00;;;19.60;97.30;;;;;;5012483;28;20193;-84
2022/10/16 09:34:36;;;;;;;0.80;0.80;;;19.50;97.30;;;;;;5012234;28;20182;-84
2022/10/16 09:37:05;;;;;;;1.00;0.90;;;19.50;97.30;;;;;;5013818;28;20607;-85
2022/10/16 09:39:43;;;;;;;1.10;1.00;;;19.50;97.30;;;;;;4996470;28;20878;-84
2022/10/16 09:42:14;;;;;;;0.70;0.70;;;19.50;97.30;;;;;;5013716;28;20809;-84
2022/10/16 09:44:40;;;;;;;0.90;0.80;;;19.50;97.30;;;;;;5012221;28;20437;-84
2022/10/16 09:47:18;;;;;;;0.70;0.70;;;19.60;97.30;;;;;;5011160;28;20927;-86
2022/10/16 09:50:01;;;;;;;0.70;0.70;;;19.70;97.30;;;;;;5010330;28;20482;-84
2022/10/16 09:52:28;;;;;;;1.93;0.90;;;19.80;97.30;;;;;;5011612;28;20419;-84
2022/10/16 09:54:59;;;;;;;0.90;0.80;;;20.00;97.30;;;;;;5010107;28;20460;-84
2022/10/16 09:57:26;;;;;;;0.90;0.80;;;20.10;97.30;;;;;;5010310;28;20420;-85
2022/10/16 09:59:54;;;;;;;1.00;0.80;;;20.20;97.30;;;;;;5010582;28;20931;-84
2022/10/16 10:02:33;;;;;;;0.90;0.80;;;20.30;97.30;;;;;;5011228;28;20507;-84
2022/10/16 10:04:59;;;;;;;0.93;0.83;;;20.30;97.30;;;;;;5011707;28;20493;-84
2022/10/16 10:07:34;;;;;;;2.77;1.07;;;20.40;97.30;;;;;;5012949;28;20413;-84
2022/10/16 10:10:03;;;;;;;1.63;1.53;;;20.40;97.30;;;;;;5010255;28;20230;-84
2022/10/16 10:12:32;;;;;;;0.70;0.70;;;20.20;97.30;;;;;;5011693;28;20768;-84
2022/10/16 10:15:11;;;;;;;1.00;0.93;;;20.10;97.30;;;;;;5009888;28;20502;-84
2022/10/16 10:17:47;;;;;;;1.90;1.40;;;20.00;97.30;;;;;;4990949;28;21003;-84
2022/10/16 10:20:42;;;;;;;1.23;0.97;;;19.90;97.30;;;;;;4991247;28;21030;-82
2022/10/16 10:23:26;;;;;;;1.00;0.90;;;19.90;97.30;;;;;;4973930;28;20940;-84
2022/10/16 10:25:51;;;;;;;0.90;0.80;;;20.10;97.30;;;;;;4991765;28;20615;-84
2022/10/16 10:28:43;;;;;;;0.90;0.80;;;20.30;97.30;;;;;;4993647;28;20868;-83
2022/10/16 10:31:14;;;;;;;1.10;1.00;;;20.30;97.30;;;;;;4992170;28;20338;-84
2022/10/16 10:33:39;;;;;;;1.37;1.23;;;20.40;97.30;;;;;;4992962;28;20424;-84
2022/10/16 10:36:12;;;;;;;0.97;0.90;;;20.40;97.30;;;;;;4993073;28;20591;-84
2022/10/16 10:39:05;;;;;;;1.27;1.00;;;20.40;97.30;;;;;;4991535;28;20571;-84
2022/10/16 10:41:51;;;;;;;1.03;0.93;;;20.40;97.30;;;;;;4985480;28;20464;-83
2022/10/16 10:44:34;;;;;;;1.20;0.83;;;20.40;97.30;;;;;;4991174;28;20429;-83
2022/10/16 10:47:44;;;;;;;1.17;1.07;;;20.30;97.30;;;;;;4992247;28;20417;-83
2022/10/16 10:50:52;;;;;;;1.00;0.90;;;20.40;97.30;;;;;;4991451;28;20423;-84
2022/10/16 10:53:29;;;;;;;1.10;1.00;;;20.30;97.30;;;;;;4992928;28;20472;-84
2022/10/16 10:56:07;;;;;;;1.23;1.03;;;20.30;97.30;;;;;;4991807;28;20443;-83
2022/10/16 10:58:43;;;;;;;0.80;0.80;;;20.20;97.30;;;;;;4991449;28;20468;-83
2022/10/16 11:01:30;;;;;;;0.90;0.80;;;20.20;97.30;;;;;;4991164;28;20507;-84
2022/10/16 11:04:17;;;;;;;1.03;0.93;;;20.10;97.30;;;;;;4991114;28;20509;-84
2022/10/16 11:06:52;;;;;;;0.90;0.80;;;20.00;97.30;;;;;;4990906;28;20932;-84
2022/10/16 11:09:24;;;;;;;1.03;0.97;;;20.00;97.30;;;;;;4992559;28;20942;-84
2022/10/16 11:12:24;;;;;;;0.93;0.93;;;20.00;97.30;;;;;;4992353;28;20884;-84
2022/10/16 11:15:00;;;;;;;1.03;0.93;;;20.10;97.30;;;;;;4992688;28;20579;-84
2022/10/16 11:17:58;;;;;;;2.17;1.10;;;20.10;97.30;;;;;;5011908;28;20484;-84
2022/10/16 11:20:32;;;;;;;0.90;0.80;;;20.10;97.30;;;;;;5006837;28;20459;-85
2022/10/16 11:23:19;;;;;;;1.10;1.00;;;20.10;97.30;;;;;;5012289;28;20408;-83
2022/10/16 11:29:05;;;;;;;;;;;;;;;;;;;;;
2022/10/16 11:31:52;;;;;;;1.23;1.13;;;20.10;97.30;;;;;;5031933;28;20955;-86
2022/10/16 11:34:55;;;;;;;1.07;1.00;;;20.10;97.30;;;;;;5030732;28;20519;-87
2022/10/16 11:38:02;;;;;;;1.00;0.90;;;20.10;97.30;;;;;;5008663;28;20431;-89
2022/10/16 11:41:11;;;;;;;1.10;1.00;;;20.20;97.30;;;;;;4961573;28;20469;-87
2022/10/16 11:44:38;;;;;;;1.40;1.20;;;20.30;97.30;;;;;;4970890;28;20425;-86
2022/10/16 11:47:31;;;;;;;1.10;1.00;;;20.30;97.30;;;;;;4953669;28;20547;-89
2022/10/16 11:50:21;;;;;;;0.90;0.80;;;20.40;97.30;;;;;;4955070;28;20414;-87
2022/10/16 11:53:21;;;;;;;1.33;1.10;;;20.40;97.30;;;;;;4954022;28;20937;-88
2022/10/16 11:55:49;;;;;;;1.00;0.90;;;20.40;97.30;;;;;;4999473;28;20448;-88
2022/10/16 11:58:22;;;;;;;1.10;1.00;;;20.40;97.30;;;;;;5020154;28;20407;-88
2022/10/16 12:01:01;;;;;;;1.00;0.90;;;20.40;97.30;;;;;;5017342;28;21036;-88
2022/10/16 12:03:29;;;;;;;1.60;0.97;;;20.30;97.30;;;;;;5025241;28;20455;-87
2022/10/16 12:06:27;;;;;;;0.97;0.80;;;20.30;97.30;;;;;;5031978;28;20561;-90
2022/10/16 12:08:54;;;;;;;1.07;1.00;;;20.30;97.30;;;;;;5031181;28;20454;-88
2022/10/16 12:11:33;;;;;;;1.03;0.93;;;20.30;97.30;;;;;;5030208;28;21039;-88
2022/10/16 12:14:11;;;;;;;1.10;1.00;;;20.40;97.30;;;;;;5030453;28;20477;-88
2022/10/16 12:17:02;;;;;;;0.70;0.70;;;20.40;97.30;;;;;;5017504;28;20450;-89
2022/10/16 12:19:31;;;;;;;1.00;0.90;;;20.50;97.30;;;;;;5009004;28;20477;-88
2022/10/16 12:22:32;;;;;;;1.30;1.20;;;20.50;97.30;;;;;;5009242;28;20556;-88
2022/10/16 12:25:19;;;;;;;1.00;0.90;;;20.60;97.30;;;;;;4968050;28;20436;-88
2022/10/16 12:31:12;;;;;;;1.10;1.00;;;20.60;97.30;;;;;;5009682;28;20485;-89
2022/10/16 12:33:51;;;;;;;1.00;0.90;;;20.60;97.30;;;;;;5010787;28;20435;-88
2022/10/16 12:36:34;;;;;;;1.03;0.93;;;20.70;97.30;;;;;;5010648;28;20495;-88
2022/10/16 12:39:00;;;;;;;1.37;1.30;;;20.70;97.30;;;;;;5010841;28;20519;-88
2022/10/16 12:42:02;;;;;;;1.13;1.03;;;20.80;97.30;;;;;;5011249;28;20464;-88
2022/10/16 12:45:21;;;;;;;0.77;0.73;;;21.00;97.30;;;;;;4971454;28;20431;-89
2022/10/16 12:47:53;;;;;;;2.60;1.03;;;21.20;97.30;;;;;;4957582;28;20418;-88
2022/10/16 12:50:40;;;;;;;1.10;1.00;;;21.30;97.30;;;;;;4957439;28;20425;-87
2022/10/16 12:57:11;;;;;;;1.10;1.00;;;21.50;97.30;;;;;;4989143;28;20444;-88
2022/10/16 13:00:12;;;;;;;1.07;0.97;;;21.50;97.30;;;;;;5010598;28;20412;-88
2022/10/16 13:03:11;;;;;;;3.47;1.93;;;21.40;97.30;;;;;;4973710;28;20454;-88
2022/10/16 13:06:01;;;;;;;1.00;0.90;;;21.20;97.30;;;;;;5014460;28;20428;-91
2022/10/16 13:08:51;;;;;;;1.63;1.23;;;21.00;97.30;;;;;;5014263;28;20683;-88
2022/10/16 13:11:53;;;;;;;1.10;1.00;;;20.80;97.30;;;;;;5013385;28;20416;-88
2022/10/16 13:15:00;;;;;;;0.93;0.90;;;20.80;97.30;;;;;;5013734;28;20510;-87
2022/10/16 13:17:51;;;;;;;1.47;1.43;;;21.30;97.30;;;;;;5012645;28;20427;-89
2022/10/16 13:20:35;;;;;;;1.00;0.90;;;21.50;97.30;;;;;;5012632;28;20478;-89
2022/10/16 13:23:13;;;;;;;1.20;1.10;;;21.90;96.90;;;;;;5013542;28;20444;-88
2022/10/16 13:25:55;;;;;;;0.90;0.90;;;22.10;96.50;;;;;;5013487;28;20486;-88
2022/10/16 13:28:27;;;;;;;2.10;1.23;;;22.50;95.80;;;;;;5013535;28;20446;-88
2022/10/16 13:30:56;;;;;;;0.70;0.70;;;22.90;95.10;;;;;;5013134;28;20434;-88